Weather at Byron Airport

Public forecast

Using degrees Fahrenheit for public forecast. Weather courtesy of forecast.io.

Closest aviation weather report (METAR) to Byron Airport

Closest report is Livermore Municipal Airport, 12.3 nm (22.7 km) SW. Retrieved 2020/10/19 14:53 UTC (29 minutes ago):

KLVK 191453Z 00000KT 10SM CLR 13/07 A3001 RMK AO2 SLP158 T01330067 53012

Closest aviation forecast (TAF) to Byron Airport

Closest forecast is Livermore Municipal Airport, 12.3 nm (22.7 km) SW. Retrieved 2020/10/19 12:27 UTC (3 hours ago):

TAF KLVK 191125Z 1912/2012 VRB04KT P6SM SKC FM192100 32009KT P6SM SKC FM200400 29005KT P6SM SKC FM200800 29004KT P6SM SKC